sensor_id;sensor_type;location;lat;lon;timestamp;pressure;altitude;pressure_sealevel;temperature;humidity
69351;BME280;57106;51.446;-2.606;2023-04-06T00:02:11;101413.80;;;12.38;76.72
69351;BME280;57106;51.446;-2.606;2023-04-06T00:04:37;101411.22;;;12.43;76.72
69351;BME280;57106;51.446;-2.606;2023-04-06T00:07:02;101413.78;;;12.27;77.18
69351;BME280;57106;51.446;-2.606;2023-04-06T00:09:28;101412.42;;;12.05;77.83
69351;BME280;57106;51.446;-2.606;2023-04-06T00:11:53;101411.97;;;12.22;77.57
69351;BME280;57106;51.446;-2.606;2023-04-06T00:14:19;101411.19;;;12.22;77.53
69351;BME280;57106;51.446;-2.606;2023-04-06T00:16:44;101405.63;;;12.21;77.80
69351;BME280;57106;51.446;-2.606;2023-04-06T00:19:10;101402.60;;;12.21;77.72
69351;BME280;57106;51.446;-2.606;2023-04-06T00:21:36;101402.15;;;12.30;77.51
69351;BME280;57106;51.446;-2.606;2023-04-06T00:24:01;101401.52;;;12.48;77.01
69351;BME280;57106;51.446;-2.606;2023-04-06T00:26:27;101394.70;;;12.35;77.02
69351;BME280;57106;51.446;-2.606;2023-04-06T00:28:52;101391.66;;;12.47;76.59
69351;BME280;57106;51.446;-2.606;2023-04-06T00:31:18;101386.91;;;12.35;77.14
69351;BME280;57106;51.446;-2.606;2023-04-06T00:33:43;101385.33;;;12.33;77.41
69351;BME280;57106;51.446;-2.606;2023-04-06T00:36:09;101386.69;;;12.47;76.68
69351;BME280;57106;51.446;-2.606;2023-04-06T00:38:35;101379.80;;;12.37;77.03
69351;BME280;57106;51.446;-2.606;2023-04-06T00:41:00;101376.86;;;12.49;76.84
69351;BME280;57106;51.446;-2.606;2023-04-06T00:43:26;101378.26;;;12.49;76.86
69351;BME280;57106;51.446;-2.606;2023-04-06T00:45:51;101375.27;;;12.51;76.94
69351;BME280;57106;51.446;-2.606;2023-04-06T00:48:17;101375.66;;;12.60;76.62
69351;BME280;57106;51.446;-2.606;2023-04-06T00:50:42;101370.15;;;12.67;76.50
69351;BME280;57106;51.446;-2.606;2023-04-06T00:53:07;101365.97;;;12.59;76.56
69351;BME280;57106;51.446;-2.606;2023-04-06T00:55:33;101364.27;;;12.60;76.67
69351;BME280;57106;51.446;-2.606;2023-04-06T00:57:59;101359.45;;;12.59;76.62
69351;BME280;57106;51.446;-2.606;2023-04-06T01:00:24;101359.97;;;12.59;76.53
69351;BME280;57106;51.446;-2.606;2023-04-06T01:02:50;101355.89;;;12.71;76.19
69351;BME280;57106;51.446;-2.606;2023-04-06T01:05:15;101350.84;;;12.69;76.39
69351;BME280;57106;51.446;-2.606;2023-04-06T01:07:41;101347.41;;;12.75;76.09
69351;BME280;57106;51.446;-2.606;2023-04-06T01:10:07;101342.91;;;12.75;76.02
69351;BME280;57106;51.446;-2.606;2023-04-06T01:12:32;101339.05;;;12.66;75.74
69351;BME280;57106;51.446;-2.606;2023-04-06T01:14:57;101336.89;;;12.66;75.97
69351;BME280;57106;51.446;-2.606;2023-04-06T01:17:23;101333.45;;;12.61;75.95
69351;BME280;57106;51.446;-2.606;2023-04-06T01:19:48;101333.75;;;12.73;75.72
69351;BME280;57106;51.446;-2.606;2023-04-06T01:22:15;101332.25;;;12.70;75.55
69351;BME280;57106;51.446;-2.606;2023-04-06T01:24:39;101331.28;;;12.70;75.77
69351;BME280;57106;51.446;-2.606;2023-04-06T01:27:05;101327.95;;;12.68;75.68
69351;BME280;57106;51.446;-2.606;2023-04-06T01:29:30;101327.01;;;12.66;75.68
69351;BME280;57106;51.446;-2.606;2023-04-06T01:31:56;101329.66;;;12.64;76.12
69351;BME280;57106;51.446;-2.606;2023-04-06T01:34:22;101326.33;;;12.69;75.72
69351;BME280;57106;51.446;-2.606;2023-04-06T01:36:47;101324.62;;;12.62;75.43
69351;BME280;57106;51.446;-2.606;2023-04-06T01:39:13;101323.70;;;12.53;75.90
69351;BME280;57106;51.446;-2.606;2023-04-06T01:41:39;101321.45;;;12.73;75.30
69351;BME280;57106;51.446;-2.606;2023-04-06T01:44:04;101315.31;;;12.70;75.65
69351;BME280;57106;51.446;-2.606;2023-04-06T01:46:29;101311.40;;;12.75;75.69
69351;BME280;57106;51.446;-2.606;2023-04-06T01:48:55;101309.67;;;12.80;75.72
69351;BME280;57106;51.446;-2.606;2023-04-06T01:51:20;101312.87;;;12.73;75.56
69351;BME280;57106;51.446;-2.606;2023-04-06T01:53:46;101308.59;;;12.69;75.77
69351;BME280;57106;51.446;-2.606;2023-04-06T01:56:11;101306.62;;;12.46;76.50
69351;BME280;57106;51.446;-2.606;2023-04-06T01:58:37;101305.18;;;12.57;76.24
69351;BME280;57106;51.446;-2.606;2023-04-06T02:01:02;101306.40;;;12.51;77.05
69351;BME280;57106;51.446;-2.606;2023-04-06T02:03:29;101303.12;;;12.51;77.25
69351;BME280;57106;51.446;-2.606;2023-04-06T02:05:53;101301.71;;;12.48;77.59
69351;BME280;57106;51.446;-2.606;2023-04-06T02:08:19;101304.65;;;12.36;78.10
69351;BME280;57106;51.446;-2.606;2023-04-06T02:10:44;101306.64;;;12.02;79.77
69351;BME280;57106;51.446;-2.606;2023-04-06T02:13:10;101307.97;;;11.70;81.13
69351;BME280;57106;51.446;-2.606;2023-04-06T02:15:41;101311.42;;;11.70;81.07
69351;BME280;57106;51.446;-2.606;2023-04-06T02:18:01;101308.55;;;11.65;81.18
69351;BME280;57106;51.446;-2.606;2023-04-06T02:20:27;101306.78;;;11.62;81.25
69351;BME280;57106;51.446;-2.606;2023-04-06T02:22:52;101305.13;;;11.38;81.60
69351;BME280;57106;51.446;-2.606;2023-04-06T02:25:18;101302.88;;;11.53;81.52
69351;BME280;57106;51.446;-2.606;2023-04-06T02:27:43;101306.12;;;11.48;81.78
69351;BME280;57106;51.446;-2.606;2023-04-06T02:30:10;101306.06;;;11.55;81.15
69351;BME280;57106;51.446;-2.606;2023-04-06T02:32:35;101291.26;;;11.45;81.21
69351;BME280;57106;51.446;-2.606;2023-04-06T02:35:00;101288.41;;;11.23;81.87
69351;BME280;57106;51.446;-2.606;2023-04-06T02:37:25;101283.93;;;11.46;80.42
69351;BME280;57106;51.446;-2.606;2023-04-06T02:39:51;101284.37;;;11.13;81.81
69351;BME280;57106;51.446;-2.606;2023-04-06T02:42:17;101277.76;;;11.14;81.67
69351;BME280;57106;51.446;-2.606;2023-04-06T02:44:42;101270.64;;;11.16;81.71
69351;BME280;57106;51.446;-2.606;2023-04-06T02:47:08;101262.00;;;10.85;82.63
69351;BME280;57106;51.446;-2.606;2023-04-06T02:49:34;101259.68;;;10.89;82.40
69351;BME280;57106;51.446;-2.606;2023-04-06T02:51:59;101254.61;;;10.89;82.12
69351;BME280;57106;51.446;-2.606;2023-04-06T02:54:24;101248.22;;;11.06;81.66
69351;BME280;57106;51.446;-2.606;2023-04-06T02:56:50;101238.13;;;11.11;81.25
69351;BME280;57106;51.446;-2.606;2023-04-06T02:59:15;101237.72;;;11.22;80.88
69351;BME280;57106;51.446;-2.606;2023-04-06T03:01:42;101235.88;;;11.05;80.36
69351;BME280;57106;51.446;-2.606;2023-04-06T03:04:07;101234.50;;;11.13;80.34
69351;BME280;57106;51.446;-2.606;2023-04-06T03:06:33;101224.95;;;11.12;80.06
69351;BME280;57106;51.446;-2.606;2023-04-06T03:08:58;101223.16;;;11.19;79.45
69351;BME280;57106;51.446;-2.606;2023-04-06T03:11:23;101221.55;;;10.97;80.05
69351;BME280;57106;51.446;-2.606;2023-04-06T03:13:49;101218.00;;;10.95;80.39
69351;BME280;57106;51.446;-2.606;2023-04-06T03:16:14;101213.37;;;11.02;80.00
69351;BME280;57106;51.446;-2.606;2023-04-06T03:18:40;101212.92;;;11.10;79.76
69351;BME280;57106;51.446;-2.606;2023-04-06T03:21:08;101216.22;;;11.08;79.88
69351;BME280;57106;51.446;-2.606;2023-04-06T03:23:31;101209.64;;;11.07;80.00
69351;BME280;57106;51.446;-2.606;2023-04-06T03:25:57;101201.57;;;11.10;80.20
69351;BME280;57106;51.446;-2.606;2023-04-06T03:28:23;101195.82;;;10.99;80.43
69351;BME280;57106;51.446;-2.606;2023-04-06T03:30:49;101197.53;;;10.88;80.85
69351;BME280;57106;51.446;-2.606;2023-04-06T03:33:13;101215.85;;;11.02;81.02
69351;BME280;57106;51.446;-2.606;2023-04-06T03:35:39;101217.84;;;10.80;81.39
69351;BME280;57106;51.446;-2.606;2023-04-06T03:38:05;101219.70;;;10.77;82.14
69351;BME280;57106;51.446;-2.606;2023-04-06T03:40:30;101223.20;;;10.50;83.27
69351;BME280;57106;51.446;-2.606;2023-04-06T03:42:56;101224.32;;;10.78;82.91
69351;BME280;57106;51.446;-2.606;2023-04-06T03:45:29;101229.42;;;10.84;82.41
69351;BME280;57106;51.446;-2.606;2023-04-06T03:47:47;101231.06;;;10.78;82.27
69351;BME280;57106;51.446;-2.606;2023-04-06T03:50:12;101232.83;;;10.81;82.63
69351;BME280;57106;51.446;-2.606;2023-04-06T03:52:38;101224.80;;;10.70;82.94
69351;BME280;57106;51.446;-2.606;2023-04-06T03:55:05;101229.29;;;10.75;82.60
69351;BME280;57106;51.446;-2.606;2023-04-06T03:57:29;101228.67;;;10.67;82.28
69351;BME280;57106;51.446;-2.606;2023-04-06T03:59:55;101224.84;;;10.67;82.66
69351;BME280;57106;51.446;-2.606;2023-04-06T04:02:20;101216.86;;;10.88;82.29
69351;BME280;57106;51.446;-2.606;2023-04-06T04:04:46;101221.44;;;10.89;82.25
69351;BME280;57106;51.446;-2.606;2023-04-06T04:07:11;101224.36;;;10.93;81.80
69351;BME280;57106;51.446;-2.606;2023-04-06T04:09:38;101217.71;;;10.93;81.92
69351;BME280;57106;51.446;-2.606;2023-04-06T04:12:03;101223.97;;;11.09;81.82
69351;BME280;57106;51.446;-2.606;2023-04-06T04:14:28;101217.97;;;11.10;81.58
69351;BME280;57106;51.446;-2.606;2023-04-06T04:16:55;101214.54;;;11.18;81.06
69351;BME280;57106;51.446;-2.606;2023-04-06T04:19:19;101213.23;;;11.04;80.86
69351;BME280;57106;51.446;-2.606;2023-04-06T04:21:46;101215.71;;;10.84;81.55
69351;BME280;57106;51.446;-2.606;2023-04-06T04:24:13;101212.94;;;10.83;82.21
69351;BME280;57106;51.446;-2.606;2023-04-06T04:26:37;101212.20;;;10.69;82.52
69351;BME280;57106;51.446;-2.606;2023-04-06T04:29:02;101204.47;;;10.59;83.18
69351;BME280;57106;51.446;-2.606;2023-04-06T04:31:27;101199.21;;;10.44;83.88
69351;BME280;57106;51.446;-2.606;2023-04-06T04:33:53;101203.05;;;10.62;83.44
69351;BME280;57106;51.446;-2.606;2023-04-06T04:36:18;101201.70;;;10.62;83.84
69351;BME280;57106;51.446;-2.606;2023-04-06T04:38:45;101194.28;;;10.93;82.68
69351;BME280;57106;51.446;-2.606;2023-04-06T04:41:10;101196.24;;;11.17;81.58
69351;BME280;57106;51.446;-2.606;2023-04-06T04:43:35;101194.85;;;11.28;81.22
69351;BME280;57106;51.446;-2.606;2023-04-06T04:46:01;101191.72;;;11.11;81.56
69351;BME280;57106;51.446;-2.606;2023-04-06T04:48:26;101186.20;;;11.11;82.04
69351;BME280;57106;51.446;-2.606;2023-04-06T04:50:52;101189.19;;;10.98;82.29
69351;BME280;57106;51.446;-2.606;2023-04-06T04:53:17;101185.42;;;11.13;82.40
69351;BME280;57106;51.446;-2.606;2023-04-06T04:55:44;101180.47;;;11.01;82.90
69351;BME280;57106;51.446;-2.606;2023-04-06T04:58:09;101178.71;;;10.68;84.27
69351;BME280;57106;51.446;-2.606;2023-04-06T05:00:34;101177.58;;;10.44;85.23
69351;BME280;57106;51.446;-2.606;2023-04-06T05:03:00;101181.29;;;10.49;85.00
69351;BME280;57106;51.446;-2.606;2023-04-06T05:05:25;101179.71;;;10.45;85.06
69351;BME280;57106;51.446;-2.606;2023-04-06T05:07:51;101177.34;;;10.78;84.17
69351;BME280;57106;51.446;-2.606;2023-04-06T05:10:16;101181.88;;;10.81;84.15
69351;BME280;57106;51.446;-2.606;2023-04-06T05:12:42;101179.97;;;10.70;84.25
69351;BME280;57106;51.446;-2.606;2023-04-06T05:15:08;101190.19;;;10.81;83.91
69351;BME280;57106;51.446;-2.606;2023-04-06T05:17:33;101194.16;;;10.67;84.46
69351;BME280;57106;51.446;-2.606;2023-04-06T05:19:58;101199.49;;;10.77;84.40
69351;BME280;57106;51.446;-2.606;2023-04-06T05:22:24;101199.75;;;10.85;84.08
69351;BME280;57106;51.446;-2.606;2023-04-06T05:24:50;101206.21;;;10.74;83.92
69351;BME280;57106;51.446;-2.606;2023-04-06T05:27:21;101201.73;;;10.87;83.85
69351;BME280;57106;51.446;-2.606;2023-04-06T05:29:41;101199.32;;;10.69;84.27
69351;BME280;57106;51.446;-2.606;2023-04-06T05:32:07;101208.76;;;10.90;83.88
69351;BME280;57106;51.446;-2.606;2023-04-06T05:34:32;101206.13;;;10.88;83.53
69351;BME280;57106;51.446;-2.606;2023-04-06T05:36:58;101206.95;;;10.94;83.55
69351;BME280;57106;51.446;-2.606;2023-04-06T05:39:23;101215.92;;;11.04;83.74
69351;BME280;57106;51.446;-2.606;2023-04-06T05:41:49;101217.80;;;10.92;83.74
69351;BME280;57106;51.446;-2.606;2023-04-06T05:44:14;101224.71;;;11.05;83.43
69351;BME280;57106;51.446;-2.606;2023-04-06T05:46:39;101237.72;;;11.29;82.75
69351;BME280;57106;51.446;-2.606;2023-04-06T05:49:05;101239.69;;;11.22;82.46
69351;BME280;57106;51.446;-2.606;2023-04-06T05:51:31;101239.10;;;11.10;82.52
69351;BME280;57106;51.446;-2.606;2023-04-06T05:53:56;101242.86;;;11.00;82.96
69351;BME280;57106;51.446;-2.606;2023-04-06T05:56:21;101242.74;;;11.23;82.55
69351;BME280;57106;51.446;-2.606;2023-04-06T05:58:47;101247.31;;;11.22;82.18
69351;BME280;57106;51.446;-2.606;2023-04-06T06:01:12;101244.45;;;11.04;83.01
69351;BME280;57106;51.446;-2.606;2023-04-06T06:03:38;101248.18;;;11.36;82.33
69351;BME280;57106;51.446;-2.606;2023-04-06T06:06:04;101242.80;;;11.33;81.59
69351;BME280;57106;51.446;-2.606;2023-04-06T06:08:29;101249.67;;;11.31;81.22
69351;BME280;57106;51.446;-2.606;2023-04-06T06:10:58;101247.73;;;11.19;81.29
69351;BME280;57106;51.446;-2.606;2023-04-06T06:13:19;101249.99;;;11.13;81.33
69351;BME280;57106;51.446;-2.606;2023-04-06T06:15:45;101250.56;;;11.12;81.26
69351;BME280;57106;51.446;-2.606;2023-04-06T06:18:11;101249.17;;;10.96;81.81
69351;BME280;57106;51.446;-2.606;2023-04-06T06:20:37;101252.08;;;10.89;82.15
69351;BME280;57106;51.446;-2.606;2023-04-06T06:23:02;101256.26;;;10.96;82.45
69351;BME280;57106;51.446;-2.606;2023-04-06T06:25:27;101265.14;;;11.12;81.15
69351;BME280;57106;51.446;-2.606;2023-04-06T06:27:53;101272.93;;;11.10;81.38
69351;BME280;57106;51.446;-2.606;2023-04-06T06:30:18;101270.94;;;11.09;81.40
69351;BME280;57106;51.446;-2.606;2023-04-06T06:32:44;101272.67;;;11.02;81.46
69351;BME280;57106;51.446;-2.606;2023-04-06T06:35:09;101280.95;;;11.18;81.77
69351;BME280;57106;51.446;-2.606;2023-04-06T06:37:34;101283.65;;;11.46;80.79
69351;BME280;57106;51.446;-2.606;2023-04-06T06:40:00;101284.82;;;11.51;80.35
69351;BME280;57106;51.446;-2.606;2023-04-06T06:42:25;101291.87;;;11.41;80.94
69351;BME280;57106;51.446;-2.606;2023-04-06T06:44:51;101291.22;;;11.54;80.70
69351;BME280;57106;51.446;-2.606;2023-04-06T06:47:16;101290.26;;;11.70;79.86
69351;BME280;57106;51.446;-2.606;2023-04-06T06:49:43;101294.79;;;11.73;79.86
69351;BME280;57106;51.446;-2.606;2023-04-06T06:52:08;101295.26;;;11.72;79.53
69351;BME280;57106;51.446;-2.606;2023-04-06T06:54:34;101298.10;;;11.73;79.82
69351;BME280;57106;51.446;-2.606;2023-04-06T06:56:59;101300.49;;;11.93;79.07
69351;BME280;57106;51.446;-2.606;2023-04-06T06:59:25;101310.48;;;11.92;78.85
69351;BME280;57106;51.446;-2.606;2023-04-06T07:01:50;101309.24;;;11.70;79.49
69351;BME280;57106;51.446;-2.606;2023-04-06T07:04:16;101308.17;;;11.68;79.62
69351;BME280;57106;51.446;-2.606;2023-04-06T07:06:42;101309.25;;;11.61;79.45
69351;BME280;57106;51.446;-2.606;2023-04-06T07:09:07;101313.09;;;11.52;79.83
69351;BME280;57106;51.446;-2.606;2023-04-06T07:11:32;101315.10;;;11.36;80.05
69351;BME280;57106;51.446;-2.606;2023-04-06T07:13:59;101313.69;;;11.45;79.65
69351;BME280;57106;51.446;-2.606;2023-04-06T07:16:22;101310.89;;;11.47;79.40
69351;BME280;57106;51.446;-2.606;2023-04-06T07:18:48;101310.43;;;11.49;79.20
69351;BME280;57106;51.446;-2.606;2023-04-06T07:21:13;101308.32;;;11.62;78.62
69351;BME280;57106;51.446;-2.606;2023-04-06T07:23:39;101310.33;;;11.61;77.91
69351;BME280;57106;51.446;-2.606;2023-04-06T07:26:04;101313.23;;;11.36;78.90
69351;BME280;57106;51.446;-2.606;2023-04-06T07:28:30;101310.42;;;11.21;79.22
69351;BME280;57106;51.446;-2.606;2023-04-06T07:30:55;101320.01;;;11.33;79.06
69351;BME280;57106;51.446;-2.606;2023-04-06T07:33:21;101320.57;;;11.43;78.55
69351;BME280;57106;51.446;-2.606;2023-04-06T07:35:46;101322.69;;;11.12;79.58
69351;BME280;57106;51.446;-2.606;2023-04-06T07:38:16;101322.24;;;10.94;79.75
69351;BME280;57106;51.446;-2.606;2023-04-06T07:40:38;101326.62;;;10.94;80.03
69351;BME280;57106;51.446;-2.606;2023-04-06T07:43:03;101328.66;;;10.85;80.26
69351;BME280;57106;51.446;-2.606;2023-04-06T07:45:28;101331.15;;;10.98;79.47
69351;BME280;57106;51.446;-2.606;2023-04-06T07:47:53;101332.63;;;10.99;79.45
69351;BME280;57106;51.446;-2.606;2023-04-06T07:50:19;101332.21;;;10.99;78.89
69351;BME280;57106;51.446;-2.606;2023-04-06T07:52:45;101328.20;;;11.15;78.47
69351;BME280;57106;51.446;-2.606;2023-04-06T07:55:17;101323.80;;;11.03;78.80
69351;BME280;57106;51.446;-2.606;2023-04-06T07:57:35;101329.15;;;11.17;78.24
69351;BME280;57106;51.446;-2.606;2023-04-06T08:00:00;101334.50;;;11.17;78.28
69351;BME280;57106;51.446;-2.606;2023-04-06T08:02:25;101333.79;;;11.11;78.71
69351;BME280;57106;51.446;-2.606;2023-04-06T08:04:51;101334.09;;;11.04;78.81
69351;BME280;57106;51.446;-2.606;2023-04-06T08:07:16;101339.13;;;11.33;78.20
69351;BME280;57106;51.446;-2.606;2023-04-06T08:09:42;101338.53;;;11.16;78.49
69351;BME280;57106;51.446;-2.606;2023-04-06T08:12:08;101339.00;;;11.38;78.66
69351;BME280;57106;51.446;-2.606;2023-04-06T08:14:32;101340.50;;;11.53;77.67
69351;BME280;57106;51.446;-2.606;2023-04-06T08:16:58;101343.02;;;11.81;76.93
69351;BME280;57106;51.446;-2.606;2023-04-06T08:19:24;101342.88;;;11.85;76.12
69351;BME280;57106;51.446;-2.606;2023-04-06T08:21:49;101342.69;;;11.73;76.48
69351;BME280;57106;51.446;-2.606;2023-04-06T08:24:14;101349.30;;;11.92;76.35
69351;BME280;57106;51.446;-2.606;2023-04-06T08:26:41;101351.07;;;12.09;75.81
69351;BME280;57106;51.446;-2.606;2023-04-06T08:29:06;101350.55;;;11.96;75.77
69351;BME280;57106;51.446;-2.606;2023-04-06T08:31:30;101354.58;;;12.20;75.42
69351;BME280;57106;51.446;-2.606;2023-04-06T08:33:58;101358.79;;;12.45;74.79
69351;BME280;57106;51.446;-2.606;2023-04-06T08:36:27;101363.93;;;12.49;74.04
69351;BME280;57106;51.446;-2.606;2023-04-06T08:38:47;101360.98;;;12.57;73.06
69351;BME280;57106;51.446;-2.606;2023-04-06T08:41:13;101356.54;;;12.64;73.10
69351;BME280;57106;51.446;-2.606;2023-04-06T08:43:46;101362.42;;;12.73;72.70
69351;BME280;57106;51.446;-2.606;2023-04-06T08:46:05;101358.41;;;12.66;71.72
69351;BME280;57106;51.446;-2.606;2023-04-06T08:48:29;101357.77;;;12.50;72.01
69351;BME280;57106;51.446;-2.606;2023-04-06T08:50:55;101359.11;;;12.69;70.66
69351;BME280;57106;51.446;-2.606;2023-04-06T08:53:25;101361.95;;;12.67;70.90
69351;BME280;57106;51.446;-2.606;2023-04-06T08:55:45;101363.20;;;12.64;70.54
69351;BME280;57106;51.446;-2.606;2023-04-06T08:58:18;101372.93;;;12.47;70.95
69351;BME280;57106;51.446;-2.606;2023-04-06T09:00:38;101370.58;;;12.72;70.40
69351;BME280;57106;51.446;-2.606;2023-04-06T09:03:03;101375.73;;;12.55;69.82
69351;BME280;57106;51.446;-2.606;2023-04-06T09:05:27;101370.38;;;12.53;70.15
69351;BME280;57106;51.446;-2.606;2023-04-06T09:07:53;101370.64;;;12.59;69.90
69351;BME280;57106;51.446;-2.606;2023-04-06T09:10:20;101368.00;;;12.55;69.66
69351;BME280;57106;51.446;-2.606;2023-04-06T09:12:49;101368.58;;;12.74;69.27
69351;BME280;57106;51.446;-2.606;2023-04-06T09:15:18;101369.35;;;12.66;68.15
69351;BME280;57106;51.446;-2.606;2023-04-06T09:17:35;101363.52;;;12.43;68.68
69351;BME280;57106;51.446;-2.606;2023-04-06T09:20:01;101374.51;;;12.46;68.71
69351;BME280;57106;51.446;-2.606;2023-04-06T09:22:36;101369.98;;;12.39;67.34
69351;BME280;57106;51.446;-2.606;2023-04-06T09:24:53;101365.47;;;12.39;66.72
69351;BME280;57106;51.446;-2.606;2023-04-06T09:27:17;101370.00;;;12.35;66.85
69351;BME280;57106;51.446;-2.606;2023-04-06T09:29:44;101377.03;;;12.60;66.55
69351;BME280;57106;51.446;-2.606;2023-04-06T09:32:09;101375.53;;;12.71;65.98
69351;BME280;57106;51.446;-2.606;2023-04-06T09:34:38;101371.62;;;13.02;65.83
69351;BME280;57106;51.446;-2.606;2023-04-06T09:36:59;101374.28;;;13.15;64.47
69351;BME280;57106;51.446;-2.606;2023-04-06T09:39:24;101378.22;;;13.21;62.95
69351;BME280;57106;51.446;-2.606;2023-04-06T09:41:51;101382.89;;;13.18;62.84
69351;BME280;57106;51.446;-2.606;2023-04-06T09:44:15;101378.93;;;13.19;62.32
69351;BME280;57106;51.446;-2.606;2023-04-06T09:46:43;101386.22;;;13.27;63.32
69351;BME280;57106;51.446;-2.606;2023-04-06T09:49:09;101385.44;;;13.28;61.84
69351;BME280;57106;51.446;-2.606;2023-04-06T09:51:38;101386.86;;;13.63;62.90
69351;BME280;57106;51.446;-2.606;2023-04-06T09:54:00;101388.13;;;13.93;62.92
69351;BME280;57106;51.446;-2.606;2023-04-06T09:56:25;101389.67;;;13.63;62.87
69351;BME280;57106;51.446;-2.606;2023-04-06T09:58:50;101392.58;;;13.87;63.30
69351;BME280;57106;51.446;-2.606;2023-04-06T10:01:19;101396.06;;;13.73;63.46
69351;BME280;57106;51.446;-2.606;2023-04-06T10:03:47;101393.31;;;13.51;62.17
69351;BME280;57106;51.446;-2.606;2023-04-06T10:06:07;101389.32;;;13.62;62.50
69351;BME280;57106;51.446;-2.606;2023-04-06T10:08:30;101391.67;;;13.58;62.27
69351;BME280;57106;51.446;-2.606;2023-04-06T10:10:55;101394.79;;;13.69;61.21
69351;BME280;57106;51.446;-2.606;2023-04-06T10:13:21;101397.89;;;13.75;62.19
69351;BME280;57106;51.446;-2.606;2023-04-06T10:15:47;101394.16;;;13.82;62.95
69351;BME280;57106;51.446;-2.606;2023-04-06T10:18:12;101393.22;;;13.53;63.40
69351;BME280;57106;51.446;-2.606;2023-04-06T10:23:08;101402.37;;;13.80;63.58
69351;BME280;57106;51.446;-2.606;2023-04-06T10:25:29;101402.51;;;13.64;63.98
69351;BME280;57106;51.446;-2.606;2023-04-06T10:27:59;101398.78;;;13.76;64.07
69351;BME280;57106;51.446;-2.606;2023-04-06T10:30:19;101393.31;;;13.98;63.30
69351;BME280;57106;51.446;-2.606;2023-04-06T10:32:45;101387.52;;;13.93;63.10
69351;BME280;57106;51.446;-2.606;2023-04-06T10:37:46;101395.55;;;14.07;62.59
69351;BME280;57106;51.446;-2.606;2023-04-06T10:40:01;101398.53;;;14.37;61.98
69351;BME280;57106;51.446;-2.606;2023-04-06T10:42:36;101397.35;;;14.37;62.15
69351;BME280;57106;51.446;-2.606;2023-04-06T10:44:53;101400.83;;;14.40;62.50
69351;BME280;57106;51.446;-2.606;2023-04-06T10:47:18;101403.12;;;14.44;61.87
69351;BME280;57106;51.446;-2.606;2023-04-06T10:49:43;101402.03;;;14.63;61.01
69351;BME280;57106;51.446;-2.606;2023-04-06T10:52:08;101403.41;;;14.38;61.89
69351;BME280;57106;51.446;-2.606;2023-04-06T10:54:35;101412.03;;;13.96;63.51
69351;BME280;57106;51.446;-2.606;2023-04-06T10:57:00;101418.62;;;13.53;66.20
69351;BME280;57106;51.446;-2.606;2023-04-06T10:59:25;101428.01;;;13.31;66.22
69351;BME280;57106;51.446;-2.606;2023-04-06T11:01:52;101425.89;;;13.31;68.64
69351;BME280;57106;51.446;-2.606;2023-04-06T11:04:16;101424.51;;;13.65;67.86
69351;BME280;57106;51.446;-2.606;2023-04-06T11:06:41;101428.34;;;13.33;67.11
69351;BME280;57106;51.446;-2.606;2023-04-06T11:09:08;101428.45;;;13.17;67.31
69351;BME280;57106;51.446;-2.606;2023-04-06T11:11:32;101432.99;;;12.80;67.16
69351;BME280;57106;51.446;-2.606;2023-04-06T11:13:59;101426.25;;;12.61;67.39
69351;BME280;57106;51.446;-2.606;2023-04-06T11:16:24;101431.11;;;12.44;67.25
69351;BME280;57106;51.446;-2.606;2023-04-06T11:18:51;101423.02;;;12.19;67.83
69351;BME280;57106;51.446;-2.606;2023-04-06T11:21:17;101420.77;;;12.04;69.39
69351;BME280;57106;51.446;-2.606;2023-04-06T11:23:40;101417.77;;;12.50;69.59
69351;BME280;57106;51.446;-2.606;2023-04-06T11:26:10;101414.77;;;12.53;72.22
69351;BME280;57106;51.446;-2.606;2023-04-06T11:28:31;101420.29;;;12.63;73.22
69351;BME280;57106;51.446;-2.606;2023-04-06T11:30:56;101418.05;;;12.55;71.40
69351;BME280;57106;51.446;-2.606;2023-04-06T11:33:22;101416.35;;;12.61;69.52
69351;BME280;57106;51.446;-2.606;2023-04-06T11:35:48;101414.52;;;12.68;69.42
69351;BME280;57106;51.446;-2.606;2023-04-06T11:38:13;101422.11;;;12.76;69.28
69351;BME280;57106;51.446;-2.606;2023-04-06T11:40:38;101417.35;;;12.98;68.91
69351;BME280;57106;51.446;-2.606;2023-04-06T11:43:04;101420.14;;;13.14;66.71
69351;BME280;57106;51.446;-2.606;2023-04-06T11:47:58;101415.18;;;13.38;65.35
69351;BME280;57106;51.446;-2.606;2023-04-06T11:50:20;101417.65;;;13.48;66.01
69351;BME280;57106;51.446;-2.606;2023-04-06T11:55:14;101412.75;;;13.61;63.74
69351;BME280;57106;51.446;-2.606;2023-04-06T11:57:37;101412.19;;;13.77;63.85
69351;BME280;57106;51.446;-2.606;2023-04-06T12:00:02;101423.73;;;13.78;63.93
69351;BME280;57106;51.446;-2.606;2023-04-06T12:02:28;101423.76;;;13.74;62.55
69351;BME280;57106;51.446;-2.606;2023-04-06T12:04:53;101423.99;;;13.79;64.10
69351;BME280;57106;51.446;-2.606;2023-04-06T12:07:19;101421.44;;;13.88;63.66
69351;BME280;57106;51.446;-2.606;2023-04-06T12:09:45;101420.28;;;13.98;64.16
69351;BME280;57106;51.446;-2.606;2023-04-06T12:12:09;101417.90;;;14.05;64.20
69351;BME280;57106;51.446;-2.606;2023-04-06T12:14:35;101419.86;;;14.32;64.06
69351;BME280;57106;51.446;-2.606;2023-04-06T12:17:03;101419.04;;;14.44;62.56
69351;BME280;57106;51.446;-2.606;2023-04-06T12:19:26;101422.61;;;14.27;62.04
69351;BME280;57106;51.446;-2.606;2023-04-06T12:21:52;101421.96;;;14.03;62.75
69351;BME280;57106;51.446;-2.606;2023-04-06T12:24:17;101421.99;;;14.19;61.82
69351;BME280;57106;51.446;-2.606;2023-04-06T12:26:42;101420.97;;;13.96;62.44
69351;BME280;57106;51.446;-2.606;2023-04-06T12:29:08;101425.25;;;13.95;62.45
69351;BME280;57106;51.446;-2.606;2023-04-06T12:31:35;101424.62;;;13.86;63.13
69351;BME280;57106;51.446;-2.606;2023-04-06T12:33:59;101432.58;;;14.11;63.46
69351;BME280;57106;51.446;-2.606;2023-04-06T12:36:29;101428.48;;;14.13;63.46
69351;BME280;57106;51.446;-2.606;2023-04-06T12:38:51;101426.88;;;14.33;62.35
69351;BME280;57106;51.446;-2.606;2023-04-06T12:41:15;101439.72;;;14.62;61.28